createdAt,value
2018-09-20T00:04:35.840Z,11.00
2018-09-20T00:10:39.285Z,14.77
2018-09-20T00:16:42.742Z,14.57
2018-09-20T00:22:46.720Z,14.90
2018-09-20T00:28:50.971Z,12.67
2018-09-20T00:34:55.176Z,11.57
2018-09-20T00:40:58.752Z,13.47
2018-09-20T00:47:02.957Z,12.63
2018-09-20T00:53:07.205Z,13.13
2018-09-20T00:59:10.579Z,12.57
2018-09-20T01:05:14.053Z,16.63
2018-09-20T01:11:17.496Z,14.70
2018-09-20T01:17:20.943Z,13.23
2018-09-20T01:23:24.393Z,10.30
2018-09-20T01:29:27.821Z,14.03
2018-09-20T01:35:31.408Z,8.80
2018-09-20T01:41:35.365Z,13.53
2018-09-20T01:47:40.185Z,17.60
2018-09-20T01:53:43.784Z,12.93
2018-09-20T01:59:47.817Z,11.83
2018-09-20T02:05:51.185Z,11.93
2018-09-20T02:11:54.736Z,13.90
2018-09-20T02:17:58.177Z,11.13
2018-09-20T02:24:01.777Z,16.87
2018-09-20T02:30:05.508Z,11.23
2018-09-20T02:36:09.119Z,14.63
2018-09-20T02:42:12.741Z,17.33
2018-09-20T02:48:16.077Z,10.93
2018-09-20T02:54:25.759Z,18.50
2018-09-20T03:00:29.177Z,15.97
2018-09-20T03:06:32.662Z,13.10
2018-09-20T03:12:36.833Z,18.20
2018-09-20T03:18:40.247Z,18.07
2018-09-20T03:24:44.387Z,13.67
2018-09-20T03:30:48.476Z,18.73
2018-09-20T03:36:52.007Z,14.80
2018-09-20T03:42:55.375Z,12.43
2018-09-20T03:48:58.780Z,13.47
2018-09-20T03:55:02.292Z,14.33
2018-09-20T04:01:05.706Z,12.60
2018-09-20T04:07:09.252Z,13.53
2018-09-20T04:13:13.976Z,10.70
2018-09-20T04:19:17.558Z,15.67
2018-09-20T04:25:20.994Z,9.87
2018-09-20T04:31:24.873Z,14.40
2018-09-20T04:37:28.421Z,12.83
2018-09-20T04:43:32.348Z,13.43
2018-09-20T04:49:35.772Z,16.10
2018-09-20T04:55:39.860Z,15.17
2018-09-20T05:01:43.388Z,16.27
2018-09-20T05:07:46.803Z,12.87
2018-09-20T05:13:50.317Z,14.30
2018-09-20T05:19:54.597Z,17.37
2018-09-20T05:25:58.333Z,15.63
2018-09-20T05:32:01.922Z,14.43
2018-09-20T05:38:05.874Z,11.83
2018-09-20T05:44:10.732Z,15.10
2018-09-20T05:50:14.259Z,12.27
2018-09-20T05:56:18.485Z,14.17
2018-09-20T06:02:22.028Z,14.40
2018-09-20T06:08:25.745Z,12.83
2018-09-20T06:14:29.154Z,15.07
2018-09-20T06:20:32.624Z,15.93
2018-09-20T06:26:36.178Z,11.77
2018-09-20T06:32:39.911Z,15.10
2018-09-20T06:38:43.644Z,13.17
2018-09-20T06:44:47.197Z,17.97
2018-09-20T06:50:50.897Z,15.17
2018-09-20T06:56:54.287Z,14.20
2018-09-20T07:02:57.902Z,12.33
2018-09-20T07:09:01.512Z,11.30
2018-09-20T07:15:07.307Z,15.80
2018-09-20T07:21:10.842Z,12.87
2018-09-20T07:27:15.015Z,11.40
2018-09-20T07:33:18.451Z,12.03
2018-09-20T07:39:22.295Z,10.47
2018-09-20T07:45:26.361Z,13.00
2018-09-20T07:51:30.109Z,11.60
2018-09-20T07:57:34.422Z,14.67
2018-09-20T08:03:39.838Z,13.80
2018-09-20T08:09:43.266Z,15.67
2018-09-20T08:15:46.833Z,13.40
2018-09-20T08:21:50.604Z,15.83
2018-09-20T08:27:54.103Z,13.23
2018-09-20T08:33:57.644Z,11.87
2018-09-20T08:40:01.069Z,12.88
2018-09-20T08:46:04.571Z,13.93
2018-09-20T08:52:07.997Z,11.17
2018-09-20T08:58:11.357Z,12.40
2018-09-20T09:04:14.929Z,16.10
2018-09-20T09:10:18.428Z,11.10
2018-09-20T09:16:28.581Z,11.30
2018-09-20T09:22:32.014Z,14.80
2018-09-20T09:28:35.579Z,10.20
2018-09-20T09:34:39.024Z,7.42
2018-09-20T09:40:42.482Z,10.50
2018-09-20T09:46:46.050Z,7.03
2018-09-20T09:52:49.745Z,8.75
2018-09-20T09:58:53.187Z,9.33
2018-09-20T10:04:57.245Z,8.20
2018-09-20T10:11:00.791Z,8.13
2018-09-20T10:17:04.897Z,8.15
2018-09-20T10:23:08.318Z,10.05
2018-09-20T10:29:13.335Z,10.55
2018-09-20T10:35:16.830Z,8.50
2018-09-20T10:41:20.491Z,13.78
2018-09-20T10:47:24.452Z,8.03
2018-09-20T10:53:27.954Z,5.03
2018-09-20T10:59:31.305Z,8.38
2018-09-20T11:05:34.842Z,7.45
2018-09-20T11:11:38.272Z,5.95
2018-09-20T11:17:41.828Z,9.60
2018-09-20T11:23:45.767Z,8.23
2018-09-20T11:29:49.143Z,7.10
2018-09-20T11:35:52.566Z,11.85
2018-09-20T11:41:56.068Z,5.47
2018-09-20T11:47:59.769Z,9.80
2018-09-20T11:54:03.512Z,9.95
2018-09-20T12:00:07.242Z,6.62
2018-09-20T12:06:11.114Z,9.58
2018-09-20T12:12:16.129Z,8.03
2018-09-20T12:18:22.097Z,3.60
2018-09-20T12:24:25.559Z,5.60
2018-09-20T12:30:28.976Z,8.23
2018-09-20T12:36:32.643Z,3.80
2018-09-20T12:42:36.110Z,12.95
2018-09-20T12:48:40.354Z,5.08
2018-09-20T12:54:44.513Z,7.30
2018-09-20T13:00:48.267Z,10.23
2018-09-20T13:06:51.980Z,6.97
2018-09-20T13:12:55.667Z,5.62
2018-09-20T13:18:59.098Z,4.40
2018-09-20T13:25:02.583Z,5.25
2018-09-20T13:31:06.110Z,4.60
2018-09-20T13:37:10.283Z,3.70
2018-09-20T13:43:13.830Z,4.58
2018-09-20T13:49:17.317Z,5.40
2018-09-20T13:55:20.875Z,9.53
2018-09-20T14:01:24.642Z,3.62
2018-09-20T14:07:28.101Z,6.72
2018-09-20T14:13:31.622Z,11.20
2018-09-20T14:19:35.685Z,4.22
2018-09-20T14:25:50.238Z,5.33
2018-09-20T14:38:29.777Z,5.15
2018-09-20T14:44:33.376Z,6.85
2018-09-20T14:50:36.872Z,14.90
2018-09-20T14:56:41.325Z,5.42
2018-09-20T15:02:44.952Z,6.12
2018-09-20T15:08:48.698Z,2.87
2018-09-20T15:14:52.434Z,4.53
2018-09-20T15:20:57.246Z,4.42
2018-09-20T15:27:02.441Z,7.62
2018-09-20T15:33:06.747Z,5.55
2018-09-20T15:39:11.469Z,6.83
2018-09-20T15:45:16.229Z,12.15
2018-09-20T15:51:19.706Z,20.20
2018-09-20T15:57:23.250Z,16.07
2018-09-20T16:03:26.854Z,7.47
2018-09-20T16:09:30.452Z,4.58
2018-09-20T16:15:34.209Z,8.93
2018-09-20T16:21:38.011Z,5.72
2018-09-20T16:27:41.857Z,6.65
2018-09-20T16:34:19.937Z,10.45
2018-09-20T16:40:26.668Z,4.92
2018-09-20T16:47:09.096Z,4.55
2018-09-20T16:53:13.730Z,5.62
2018-09-20T16:59:17.756Z,8.73
2018-09-20T17:05:22.743Z,10.43
2018-09-20T17:11:26.861Z,5.55
2018-09-20T17:17:31.385Z,7.72
2018-09-20T17:23:35.088Z,5.22
2018-09-20T17:29:38.808Z,4.83
2018-09-20T17:35:47.536Z,8.85
2018-09-20T17:41:52.875Z,4.83
2018-09-20T17:47:56.762Z,9.10
2018-09-20T17:54:01.207Z,4.65
2018-09-20T18:00:06.908Z,4.97
2018-09-20T18:06:11.866Z,7.08
2018-09-20T18:12:16.578Z,5.70
2018-09-20T18:18:21.222Z,9.53
2018-09-20T18:24:25.262Z,4.72
2018-09-20T18:30:29.623Z,6.85
2018-09-20T18:36:33.399Z,10.75
2018-09-20T18:42:37.236Z,10.95
2018-09-20T18:48:41.496Z,7.42
2018-09-20T18:54:51.586Z,9.03
2018-09-20T19:00:57.536Z,6.70
2018-09-20T19:07:01.351Z,12.30
2018-09-20T19:13:05.468Z,10.80
2018-09-20T19:19:16.139Z,9.13
2018-09-20T19:25:20.072Z,5.65
2018-09-20T19:31:23.881Z,5.40
2018-09-20T19:37:27.553Z,6.23
2018-09-20T19:43:32.244Z,5.63
2018-09-20T19:49:36.702Z,5.37
2018-09-20T19:55:40.774Z,6.15
2018-09-20T20:01:45.335Z,4.80
2018-09-20T20:07:54.201Z,5.62
2018-09-20T20:13:58.689Z,4.87
2018-09-20T20:20:04.887Z,7.75
2018-09-20T20:26:13.364Z,3.90
2018-09-20T20:32:19.446Z,3.33
2018-09-20T20:38:23.956Z,6.37
2018-09-20T20:44:28.060Z,7.92
2018-09-20T20:50:32.434Z,5.37
2018-09-20T20:56:36.978Z,6.87
2018-09-20T21:02:42.013Z,4.45
2018-09-20T21:08:46.883Z,6.70
2018-09-20T21:14:51.264Z,6.07
2018-09-20T21:20:55.438Z,8.33
2018-09-20T21:26:59.338Z,7.93
2018-09-20T21:33:02.650Z,6.03
2018-09-20T21:39:09.717Z,5.80
2018-09-20T21:45:14.566Z,9.10
2018-09-20T21:51:18.149Z,5.97
2018-09-20T21:57:21.861Z,5.62
2018-09-20T22:03:25.314Z,6.60
2018-09-20T22:09:29.403Z,9.17
2018-09-20T22:15:33.658Z,5.00
2018-09-20T22:21:37.168Z,6.62
2018-09-20T22:27:40.803Z,5.73
2018-09-20T22:33:44.176Z,5.13
2018-09-20T22:39:48.430Z,4.08
2018-09-20T22:45:51.633Z,6.67
2018-09-20T22:51:55.206Z,8.55
2018-09-20T22:57:59.146Z,5.97
2018-09-20T23:04:03.374Z,4.33
2018-09-20T23:10:07.778Z,8.83
2018-09-20T23:16:11.342Z,5.65
2018-09-20T23:22:15.079Z,3.77
2018-09-20T23:28:19.384Z,4.63
2018-09-20T23:34:23.147Z,5.57
2018-09-20T23:40:27.568Z,4.93
2018-09-20T23:46:31.154Z,5.87
2018-09-20T23:52:34.755Z,8.78
2018-09-20T23:58:38.566Z,5.50
